Time;durP1;ratioP1;P1;durP2;ratioP2;P2;SDS_P1;SDS_P2;PMS_P1;PMS_P2;Temp;Humidity;BMP_temperature;BMP_pressure;BME280_temperature;BME280_humidity;BME280_pressure;Samples;Min_cycle;Max_cycle;Signal;HPM_P1;HPM_P2
2022/02/03 00:04:31;;;;;;;1.50;1.23;;;21.90;38.40;;;;;;5050312;28;20039;-49
2022/02/03 00:07:03;;;;;;;1.75;1.35;;;21.80;38.30;;;;;;5050265;28;20071;-53
2022/02/03 00:09:59;;;;;;;1.25;1.15;;;21.80;38.30;;;;;;5042693;28;20029;-47
2022/02/03 00:25:43;;;;;;;1.20;1.10;;;21.80;38.40;;;;;;5056103;28;20415;-47
2022/02/03 00:28:24;;;;;;;1.50;1.20;;;21.80;38.40;;;;;;5048823;28;20040;-47
2022/02/03 00:49:31;;;;;;;1.00;0.77;;;21.80;38.60;;;;;;5043135;28;20029;-51
2022/02/03 00:52:01;;;;;;;1.20;0.90;;;21.70;38.50;;;;;;5048700;28;20033;-51
2022/02/03 00:54:31;;;;;;;1.85;1.20;;;21.80;38.60;;;;;;5047167;28;20036;-48
2022/02/03 00:57:05;;;;;;;1.33;0.98;;;21.70;38.60;;;;;;5049175;28;20056;-48
2022/02/03 00:59:57;;;;;;;1.55;0.90;;;21.70;38.60;;;;;;5046631;28;20033;-50
2022/02/03 01:02:24;;;;;;;1.30;1.05;;;21.80;39.30;;;;;;5054952;28;20420;-50
2022/02/03 01:04:53;;;;;;;1.45;1.02;;;21.70;38.60;;;;;;5040055;28;20053;-51
2022/02/03 01:07:20;;;;;;;1.15;1.00;;;21.70;38.70;;;;;;5044287;28;20029;-51
2022/02/03 01:09:59;;;;;;;1.42;1.10;;;21.70;38.70;;;;;;5053881;28;20389;-53
2022/02/03 01:17:50;;;;;;;1.45;1.00;;;21.70;38.70;;;;;;5046615;28;20029;-47
2022/02/03 01:45:04;;;;;;;1.20;1.00;;;21.60;38.90;;;;;;5034997;28;20266;-48
2022/02/03 01:47:53;;;;;;;1.13;1.02;;;21.60;38.90;;;;;;5041676;28;20087;-48
2022/02/03 01:52:53;;;;;;;1.80;1.13;;;21.60;38.90;;;;;;5035973;28;20428;-48
2022/02/03 01:55:26;;;;;;;1.48;1.10;;;21.60;38.90;;;;;;5036066;28;20029;-50
2022/02/03 01:58:12;;;;;;;1.42;1.10;;;21.60;38.90;;;;;;5047741;28;20116;-49
2022/02/03 02:00:41;;;;;;;1.45;1.10;;;21.60;38.90;;;;;;5034541;28;20445;-50
2022/02/03 02:03:09;;;;;;;1.42;1.17;;;21.60;39.00;;;;;;5037089;28;20021;-46
2022/02/03 02:06:20;;;;;;;1.70;1.40;;;21.60;38.90;;;;;;5054991;28;20440;-52
2022/02/03 02:09:08;;;;;;;1.10;0.90;;;21.60;38.90;;;;;;5035110;28;20056;-46
2022/02/03 02:12:23;;;;;;;1.50;1.40;;;21.60;38.90;;;;;;5037650;28;20104;-49
2022/02/03 02:43:04;;;;;;;1.52;1.30;;;21.50;39.70;;;;;;5049236;28;20021;-46
2022/02/03 02:45:53;;;;;;;1.55;1.30;;;21.50;39.10;;;;;;5038146;28;20112;-48
2022/02/03 02:48:25;;;;;;;1.65;1.50;;;21.50;39.10;;;;;;5042776;28;20440;-52
2022/02/03 02:51:02;;;;;;;1.23;1.13;;;21.50;39.10;;;;;;5038766;28;20052;-50
2022/02/03 02:53:57;;;;;;;1.77;1.40;;;21.50;39.20;;;;;;5049069;28;20038;-47
2022/02/03 03:36:22;;;;;;;2.10;1.50;;;21.40;39.00;;;;;;5037199;28;20095;-50
2022/02/03 03:38:33;;;;;;;1.90;1.48;;;21.40;39.10;;;;;;5042577;28;20347;-50
2022/02/03 03:41:01;;;;;;;2.53;1.50;;;21.40;39.10;;;;;;5039595;28;20087;-47
2022/02/03 03:43:36;;;;;;;1.38;1.27;;;21.40;39.00;;;;;;5051856;28;20412;-47
2022/02/03 03:46:21;;;;;;;2.88;2.00;;;21.40;39.00;;;;;;5037336;28;20040;-48
2022/02/03 03:49:09;;;;;;;2.30;1.48;;;21.40;39.00;;;;;;5047361;28;20079;-50
2022/02/03 03:51:57;;;;;;;1.90;1.60;;;21.40;39.00;;;;;;5036750;28;20059;-51
2022/02/03 03:54:37;;;;;;;2.28;1.80;;;21.40;38.90;;;;;;5046889;28;20397;-48
2022/02/03 04:31:24;;;;;;;1.92;1.20;;;21.30;38.90;;;;;;5036531;28;20447;-50
2022/02/03 04:34:07;;;;;;;2.38;1.23;;;21.30;38.90;;;;;;5050788;28;20428;-49
2022/02/03 05:06:30;;;;;;;1.30;0.93;;;21.20;38.80;;;;;;5035700;28;20040;-47
2022/02/03 05:10:02;;;;;;;1.30;1.02;;;21.20;38.70;;;;;;5052213;28;20025;-49
2022/02/03 05:12:37;;;;;;;1.30;0.93;;;21.20;38.80;;;;;;5048144;28;20021;-49
2022/02/03 05:24:36;;;;;;;0.70;0.70;;;21.20;38.80;;;;;;5035903;28;20044;-50
2022/02/03 05:45:04;;;;;;;1.15;0.77;;;21.20;39.30;;;;;;5044505;28;20025;-46
2022/02/03 05:54:31;;;;;;;2.17;1.00;;;21.10;38.60;;;;;;5055195;28;20072;-48
2022/02/03 06:01:42;;;;;;;1.85;0.88;;;21.20;38.60;;;;;;5011544;28;20380;-50
2022/02/03 06:04:13;;;;;;;1.17;0.80;;;21.10;38.50;;;;;;5047612;28;20017;-49
2022/02/03 06:14:53;;;;;;;0.88;0.60;;;21.10;38.50;;;;;;5020102;28;20070;-47
2022/02/03 06:17:33;;;;;;;1.27;0.73;;;21.10;38.40;;;;;;5038963;28;20032;-49
2022/02/03 06:22:49;;;;;;;0.70;0.70;;;21.20;38.40;;;;;;5053197;28;20029;-49
2022/02/03 06:27:47;;;;;;;0.70;0.57;;;21.20;38.20;;;;;;5054661;28;20106;-51
2022/02/03 06:30:18;;;;;;;1.13;0.60;;;21.20;38.20;;;;;;5058171;28;20035;-46
2022/02/03 06:32:44;;;;;;;0.50;0.50;;;21.20;38.10;;;;;;5055520;28;20029;-47
2022/02/03 06:35:12;;;;;;;1.02;0.70;;;21.20;38.10;;;;;;5046711;28;20030;-50
2022/02/03 06:37:38;;;;;;;1.40;0.80;;;21.30;38.10;;;;;;5038111;28;20037;-46
2022/02/03 06:40:07;;;;;;;0.88;0.60;;;21.20;37.90;;;;;;5047966;28;20044;-48
2022/02/03 06:42:33;;;;;;;1.88;0.88;;;21.30;38.00;;;;;;5044446;28;20026;-49
2022/02/03 06:45:14;;;;;;;0.95;0.60;;;21.30;37.90;;;;;;5041007;28;20032;-50
2022/02/03 06:47:56;;;;;;;0.80;0.60;;;21.30;37.90;;;;;;5038318;28;20088;-50
2022/02/03 06:50:28;;;;;;;1.13;0.63;;;21.30;37.90;;;;;;5050264;28;20036;-50
2022/02/03 06:53:04;;;;;;;1.58;0.65;;;21.30;38.50;;;;;;5047086;28;20431;-47
2022/02/03 06:56:00;;;;;;;1.50;0.65;;;21.30;37.90;;;;;;5038729;28;20029;-49
2022/02/03 06:58:34;;;;;;;0.60;0.50;;;21.30;37.90;;;;;;5046022;28;20091;-52
2022/02/03 07:03:30;;;;;;;0.85;0.50;;;21.30;37.80;;;;;;5043471;28;20416;-49
2022/02/03 07:05:56;;;;;;;1.75;0.68;;;21.30;37.70;;;;;;5037622;28;20042;-52
2022/02/03 07:08:23;;;;;;;1.48;0.70;;;21.30;37.70;;;;;;5030545;28;20032;-53
2022/02/03 07:10:52;;;;;;;1.15;0.65;;;21.30;37.70;;;;;;5039527;28;20037;-54
2022/02/03 07:13:18;;;;;;;0.50;0.32;;;21.30;37.70;;;;;;5054325;28;20040;-55
2022/02/03 07:15:44;;;;;;;3.00;0.60;;;21.30;37.70;;;;;;5045110;28;20360;-53
2022/02/03 07:18:09;;;;;;;1.38;0.63;;;21.30;37.70;;;;;;5055629;28;20060;-55
2022/02/03 07:20:35;;;;;;;1.10;0.63;;;21.30;37.70;;;;;;5043286;28;20351;-53
2022/02/03 07:23:03;;;;;;;0.90;0.57;;;21.30;37.70;;;;;;5054300;28;20033;-51
2022/02/03 07:25:30;;;;;;;0.73;0.50;;;21.30;37.60;;;;;;5056477;28;20116;-50
2022/02/03 07:27:57;;;;;;;0.73;0.50;;;21.30;37.60;;;;;;5055594;28;20025;-53
2022/02/03 07:30:23;;;;;;;1.00;0.40;;;21.30;37.60;;;;;;5045850;28;20110;-49
2022/02/03 07:32:55;;;;;;;0.77;0.52;;;21.30;37.50;;;;;;5040136;28;20112;-49
2022/02/03 07:35:21;;;;;;;2.65;0.70;;;21.30;37.50;;;;;;5042646;28;20443;-51
2022/02/03 07:37:55;;;;;;;0.73;0.47;;;21.30;37.50;;;;;;5060116;28;20024;-49
2022/02/03 07:40:25;;;;;;;1.08;0.70;;;21.30;37.50;;;;;;5056912;28;20029;-50
2022/02/03 07:42:51;;;;;;;1.02;0.47;;;21.30;37.50;;;;;;5046567;28;20033;-50
2022/02/03 07:45:19;;;;;;;0.90;0.50;;;21.30;37.50;;;;;;5043243;28;20348;-47
2022/02/03 07:47:50;;;;;;;1.20;0.40;;;21.30;37.40;;;;;;5037028;28;20343;-51
2022/02/03 07:50:17;;;;;;;0.93;0.50;;;21.30;37.40;;;;;;5038082;28;20344;-51
2022/02/03 07:52:44;;;;;;;0.80;0.60;;;21.30;37.40;;;;;;5037410;28;20134;-56
2022/02/03 07:55:11;;;;;;;1.92;0.63;;;21.30;37.50;;;;;;5053840;28;20046;-53
2022/02/03 07:57:42;;;;;;;1.50;0.80;;;21.30;37.60;;;;;;5052363;28;20131;-48
2022/02/03 08:00:08;;;;;;;3.58;0.80;;;21.30;37.70;;;;;;5054869;28;20110;-49
2022/02/03 08:02:43;;;;;;;3.22;0.60;;;21.30;37.70;;;;;;5054211;28;20036;-50
2022/02/03 08:05:13;;;;;;;0.63;0.52;;;21.30;37.70;;;;;;5040803;28;20369;-52
2022/02/03 08:08:06;;;;;;;1.42;0.68;;;21.40;37.70;;;;;;5050797;28;20040;-48
2022/02/03 08:10:43;;;;;;;1.02;0.50;;;21.50;37.60;;;;;;5055389;28;20371;-46
2022/02/03 08:13:13;;;;;;;0.77;0.60;;;21.60;37.50;;;;;;5041098;28;20032;-50
2022/02/03 08:15:41;;;;;;;0.75;0.60;;;21.70;37.30;;;;;;5054752;28;20025;-49
2022/02/03 08:18:12;;;;;;;0.90;0.50;;;21.80;37.20;;;;;;5053961;28;20086;-52
2022/02/03 08:20:48;;;;;;;1.10;0.70;;;21.90;37.10;;;;;;5055278;28;20045;-53
2022/02/03 08:25:56;;;;;;;1.33;0.60;;;22.10;36.90;;;;;;5038500;28;20048;-50
2022/02/03 08:31:00;;;;;;;1.33;0.50;;;22.30;36.80;;;;;;5053569;28;20050;-47
2022/02/03 08:33:26;;;;;;;0.88;0.60;;;22.40;36.70;;;;;;5051725;28;20067;-48
2022/02/03 08:35:52;;;;;;;1.08;0.57;;;22.40;36.50;;;;;;5037760;28;20029;-49
2022/02/03 08:38:46;;;;;;;1.88;0.80;;;22.50;36.40;;;;;;5053278;28;20033;-48
2022/02/03 08:41:12;;;;;;;0.83;0.60;;;22.60;36.40;;;;;;5049002;28;20040;-47
2022/02/03 08:43:39;;;;;;;1.00;0.55;;;22.60;36.30;;;;;;5054862;28;20355;-48
2022/02/03 08:46:08;;;;;;;0.60;0.50;;;22.70;36.20;;;;;;5051838;28;20041;-50
2022/02/03 08:48:34;;;;;;;1.48;0.68;;;22.80;36.10;;;;;;5054704;28;20033;-47
2022/02/03 08:51:03;;;;;;;1.25;0.60;;;22.90;36.10;;;;;;5041377;28;20104;-48
2022/02/03 08:57:11;;;;;;;1.63;0.68;;;23.00;35.90;;;;;;5046725;28;20057;-52
2022/02/03 09:51:34;;;;;;;;;;;23.80;34.70;;;;;;5053358;28;20025;-48
2022/02/03 09:57:03;;;;;;;1.08;0.50;;;23.70;34.70;;;;;;5049472;28;20039;-52
2022/02/03 09:59:32;;;;;;;1.23;0.60;;;23.70;34.70;;;;;;5050114;28;20103;-46
2022/02/03 10:02:09;;;;;;;0.88;0.55;;;23.70;34.70;;;;;;5035459;28;20116;-47
2022/02/03 10:07:15;;;;;;;1.02;0.70;;;23.70;34.70;;;;;;5031327;28;20124;-50
2022/02/03 10:09:42;;;;;;;1.00;0.70;;;23.60;34.70;;;;;;5042743;28;20104;-51
2022/02/03 10:12:10;;;;;;;0.88;0.55;;;23.60;34.70;;;;;;5043223;28;20127;-47
2022/02/03 10:14:41;;;;;;;1.15;0.57;;;23.60;34.70;;;;;;5040117;28;20029;-47
2022/02/03 10:17:09;;;;;;;1.02;0.50;;;23.50;34.80;;;;;;5036320;28;20029;-51
2022/02/03 10:19:39;;;;;;;1.08;0.57;;;23.50;34.80;;;;;;5045436;28;20385;-48
2022/02/03 10:22:17;;;;;;;0.90;0.50;;;23.50;34.90;;;;;;5049081;28;20029;-55
2022/02/03 10:24:48;;;;;;;2.10;0.77;;;23.50;34.90;;;;;;5050798;28;20045;-47
2022/02/03 10:27:29;;;;;;;2.00;0.88;;;23.40;35.00;;;;;;5047270;28;20060;-46
2022/02/03 10:30:19;;;;;;;1.00;0.60;;;23.40;35.00;;;;;;5040795;28;20103;-49
2022/02/03 10:32:45;;;;;;;1.65;0.70;;;23.40;35.00;;;;;;5042854;28;20025;-48
2022/02/03 10:35:37;;;;;;;0.80;0.47;;;23.30;35.00;;;;;;5039727;28;20039;-50
2022/02/03 10:38:33;;;;;;;1.83;0.65;;;23.30;35.00;;;;;;5051040;28;20175;-47
2022/02/03 10:57:34;;;;;;;1.00;0.63;;;23.10;35.20;;;;;;5048269;28;20111;-49
2022/02/03 11:00:39;;;;;;;0.95;0.68;;;23.10;35.20;;;;;;5038563;28;20033;-48
2022/02/03 11:03:24;;;;;;;1.67;0.60;;;23.10;35.20;;;;;;5037537;28;20072;-49
2022/02/03 11:11:16;;;;;;;1.10;0.68;;;23.10;35.20;;;;;;5037892;28;20524;-47
2022/02/03 11:13:43;;;;;;;1.95;0.73;;;23.10;35.10;;;;;;5049050;28;20044;-49
2022/02/03 11:16:10;;;;;;;1.63;0.75;;;23.00;35.10;;;;;;5054035;28;20025;-47
2022/02/03 11:18:39;;;;;;;1.33;0.80;;;23.00;35.10;;;;;;5051883;28;20025;-56
2022/02/03 11:21:05;;;;;;;1.20;0.73;;;23.00;35.10;;;;;;5026648;28;20500;-52
2022/02/03 11:23:41;;;;;;;0.75;0.52;;;23.00;35.20;;;;;;5049074;28;20021;-51
2022/02/03 11:26:36;;;;;;;2.33;0.70;;;23.00;35.10;;;;;;5045446;28;20482;-48
2022/02/03 11:34:49;;;;;;;1.65;0.77;;;23.00;35.20;;;;;;5049090;28;20037;-54
2022/02/03 11:40:34;;;;;;;4.07;0.60;;;22.90;35.20;;;;;;5051812;28;20064;-49
2022/02/03 12:21:41;;;;;;;1.27;0.55;;;23.50;35.60;;;;;;5044125;28;20037;-49
2022/02/03 12:27:07;;;;;;;0.93;0.60;;;23.60;35.60;;;;;;5048701;28;20101;-49
2022/02/03 12:29:45;;;;;;;1.35;0.63;;;23.60;35.50;;;;;;5043329;28;20028;-48
2022/02/03 12:32:29;;;;;;;1.50;0.75;;;23.70;35.50;;;;;;5044986;28;20040;-46
2022/02/03 12:42:51;;;;;;;1.08;0.60;;;23.70;35.20;;;;;;5048600;28;20035;-51
2022/02/03 12:45:23;;;;;;;10.30;0.60;;;23.70;35.20;;;;;;5047217;28;20025;-51
2022/02/03 12:48:06;;;;;;;1.15;0.60;;;23.70;35.10;;;;;;5044249;28;20421;-52
2022/02/03 12:50:36;;;;;;;1.13;0.60;;;23.70;35.10;;;;;;5024891;28;20436;-49
2022/02/03 12:53:05;;;;;;;0.82;0.50;;;23.70;35.00;;;;;;5047035;28;20101;-49
2022/02/03 12:55:39;;;;;;;3.88;0.90;;;23.70;35.00;;;;;;5042500;28;20106;-52
2022/02/03 12:58:17;;;;;;;1.10;0.57;;;23.70;34.90;;;;;;5049570;28;20067;-52
2022/02/03 13:00:58;;;;;;;1.17;0.60;;;23.70;34.90;;;;;;5046486;28;20037;-55
2022/02/03 13:03:48;;;;;;;1.38;0.80;;;23.80;34.90;;;;;;5032942;28;20092;-53
2022/02/03 13:06:25;;;;;;;1.35;0.70;;;23.80;34.90;;;;;;5047923;28;20052;-52
2022/02/03 13:08:58;;;;;;;1.77;0.80;;;23.80;34.80;;;;;;5057342;28;20021;-56
2022/02/03 13:11:43;;;;;;;0.95;0.77;;;23.80;34.80;;;;;;5055223;28;20024;-58
2022/02/03 13:14:40;;;;;;;0.60;0.47;;;23.80;34.80;;;;;;5034852;28;20029;-52
2022/02/03 13:17:13;;;;;;;2.40;0.68;;;23.90;34.90;;;;;;5052969;28;20083;-54
2022/02/03 13:31:02;;;;;;;1.25;0.70;;;24.00;34.80;;;;;;5035932;28;20052;-54
2022/02/03 13:33:37;;;;;;;1.35;0.80;;;23.90;34.70;;;;;;5053072;28;20021;-56
2022/02/03 13:36:26;;;;;;;1.02;0.70;;;24.00;34.70;;;;;;5053522;28;20079;-53
2022/02/03 13:39:09;;;;;;;1.08;0.50;;;24.00;34.60;;;;;;5036380;28;20363;-54
2022/02/03 13:41:43;;;;;;;1.98;0.80;;;24.00;34.60;;;;;;5054518;28;20110;-53
2022/02/03 13:44:11;;;;;;;1.98;0.75;;;24.00;34.60;;;;;;5054141;28;20099;-48
2022/02/03 13:46:39;;;;;;;1.30;0.77;;;24.00;34.50;;;;;;5054467;28;20029;-51
2022/02/03 13:49:17;;;;;;;1.20;0.77;;;24.00;34.50;;;;;;5055031;28;20029;-49
2022/02/03 13:51:45;;;;;;;1.60;0.57;;;24.10;34.50;;;;;;5054317;28;20029;-53
2022/02/03 13:54:56;;;;;;;1.40;0.77;;;24.10;34.40;;;;;;5054709;28;20336;-56
2022/02/03 14:14:22;;;;;;;1.42;0.73;;;24.10;34.20;;;;;;5054394;28;20327;-45
2022/02/03 14:22:04;;;;;;;1.48;0.80;;;24.10;34.10;;;;;;5036355;28;20106;-47
2022/02/03 14:29:48;;;;;;;1.70;0.73;;;24.10;34.00;;;;;;5057170;28;20098;-44
2022/02/03 14:32:16;;;;;;;1.38;0.65;;;24.10;33.90;;;;;;5054280;28;20033;-48
2022/02/03 14:34:42;;;;;;;1.20;0.70;;;24.20;33.90;;;;;;5045823;28;20452;-52
2022/02/03 14:37:26;;;;;;;1.88;0.82;;;24.20;33.90;;;;;;5048516;28;20048;-51
2022/02/03 14:42:34;;;;;;;1.13;0.70;;;24.20;34.10;;;;;;5055517;28;20021;-51
2022/02/03 14:45:06;;;;;;;1.40;0.75;;;24.20;34.20;;;;;;5055104;28;20033;-48
2022/02/03 14:47:41;;;;;;;1.52;0.80;;;24.30;34.20;;;;;;5052875;28;20028;-55
2022/02/03 14:50:12;;;;;;;1.13;0.70;;;24.30;34.20;;;;;;5055533;28;20033;-52
2022/02/03 15:00:34;;;;;;;1.55;0.68;;;24.40;34.20;;;;;;5036014;28;20444;-58
2022/02/03 15:03:01;;;;;;;1.67;0.65;;;24.40;34.10;;;;;;5044495;28;20090;-59
2022/02/03 15:05:31;;;;;;;1.33;0.70;;;24.40;34.00;;;;;;5044220;28;20017;-61
2022/02/03 15:08:00;;;;;;;1.35;0.68;;;24.40;33.90;;;;;;5045126;28;20017;-57
2022/02/03 15:16:05;;;;;;;1.33;0.50;;;24.50;33.80;;;;;;5045388;28;20037;-59
2022/02/03 15:18:31;;;;;;;0.75;0.55;;;24.40;33.80;;;;;;5046681;28;20025;-58
2022/02/03 15:20:58;;;;;;;1.30;0.60;;;24.40;33.80;;;;;;5048004;28;20491;-58
2022/02/03 15:23:24;;;;;;;1.10;0.75;;;24.40;33.70;;;;;;5045100;28;20103;-60
2022/02/03 15:25:53;;;;;;;2.90;0.70;;;24.40;33.70;;;;;;5019730;28;20059;-61
2022/02/03 15:28:20;;;;;;;1.10;0.50;;;24.40;33.70;;;;;;5025051;28;20342;-57
2022/02/03 15:30:47;;;;;;;1.13;0.70;;;24.40;33.70;;;;;;5046909;28;20017;-58
2022/02/03 15:33:16;;;;;;;0.80;0.70;;;24.30;34.20;;;;;;5031949;28;20118;-60
2022/02/03 15:35:47;;;;;;;1.17;0.63;;;24.40;33.70;;;;;;5050359;28;20114;-56
2022/02/03 15:38:20;;;;;;;1.13;0.63;;;24.30;33.60;;;;;;5047212;28;20064;-59
2022/02/03 15:40:53;;;;;;;0.98;0.57;;;24.30;33.60;;;;;;5054968;28;20033;-60
2022/02/03 15:43:30;;;;;;;1.40;0.63;;;24.30;33.60;;;;;;5055214;28;20278;-60
2022/02/03 15:46:00;;;;;;;0.80;0.57;;;24.30;33.60;;;;;;5053869;28;20060;-60
2022/02/03 15:48:44;;;;;;;0.65;0.60;;;24.30;33.70;;;;;;5042769;28;20114;-61
2022/02/03 15:56:11;;;;;;;1.80;0.80;;;24.20;33.60;;;;;;5046605;28;20025;-61
2022/02/03 15:57:06;;;;;;;0.90;0.60;;;24.20;33.70;;;;;;5037029;28;20033;-60
2022/02/03 16:02:43;;;;;;;1.52;0.63;;;24.20;33.70;;;;;;5049467;28;20041;-60
2022/02/03 16:13:18;;;;;;;1.35;0.70;;;24.20;33.70;;;;;;5031341;28;20364;-61
2022/02/03 16:14:02;;;;;;;;;;;24.10;33.70;;;;;;5029205;28;20048;-60
2022/02/03 16:19:07;;;;;;;1.42;0.65;;;24.10;33.80;;;;;;5030691;28;20033;-58
2022/02/03 16:21:50;;;;;;;1.05;0.80;;;24.10;33.80;;;;;;5015801;28;20029;-56
2022/02/03 16:24:34;;;;;;;1.98;0.73;;;24.10;33.80;;;;;;5003485;28;20353;-59
2022/02/03 16:41:06;;;;;;;1.55;0.70;;;24.10;34.20;;;;;;5035176;28;20450;-55
2022/02/03 16:54:14;;;;;;;2.47;0.73;;;23.90;34.30;;;;;;5038943;28;20037;-53
2022/02/03 16:56:40;;;;;;;1.27;0.70;;;23.90;34.20;;;;;;5037839;28;20411;-55
2022/02/03 16:59:06;;;;;;;2.65;0.73;;;23.90;34.20;;;;;;5038341;28;20059;-55
2022/02/03 17:01:31;;;;;;;2.00;0.90;;;23.90;34.30;;;;;;5033995;28;20106;-56
2022/02/03 17:03:57;;;;;;;1.83;0.77;;;23.80;34.20;;;;;;5041774;28;20324;-54
2022/02/03 17:06:24;;;;;;;1.00;0.70;;;23.80;34.30;;;;;;5052005;28;20044;-56
2022/02/03 17:08:50;;;;;;;1.73;0.82;;;23.70;34.30;;;;;;5029260;28;20425;-54
2022/02/03 17:11:17;;;;;;;2.75;1.17;;;23.60;34.30;;;;;;5043728;28;20115;-51
2022/02/03 17:13:43;;;;;;;1.20;0.80;;;23.60;34.30;;;;;;5037691;28;20078;-57
2022/02/03 17:16:11;;;;;;;1.23;0.90;;;23.60;34.30;;;;;;5051356;28;20028;-53
2022/02/03 17:18:38;;;;;;;2.15;0.80;;;23.60;34.40;;;;;;5041710;28;20053;-54
2022/02/03 17:21:04;;;;;;;1.55;0.70;;;23.50;34.40;;;;;;5035055;28;20041;-55
2022/02/03 17:23:29;;;;;;;1.33;0.90;;;23.50;34.40;;;;;;5035097;28;20056;-53
2022/02/03 17:28:36;;;;;;;1.67;1.00;;;23.50;34.40;;;;;;5041205;28;20037;-56
2022/02/03 17:31:09;;;;;;;1.30;0.80;;;23.50;34.40;;;;;;5036863;28;20025;-56
2022/02/03 18:52:03;;;;;;;1.55;0.95;;;23.00;35.10;;;;;;4979202;28;20104;-55
2022/02/03 18:54:42;;;;;;;1.13;1.00;;;22.90;35.00;;;;;;4987494;28;20054;-53
2022/02/03 19:03:02;;;;;;;1.15;0.80;;;23.00;35.10;;;;;;4966958;28;20501;-53
2022/02/03 19:27:17;;;;;;;;;;;22.80;35.20;;;;;;5044020;28;20057;-56
2022/02/03 20:10:22;;;;;;;2.20;1.33;;;22.70;35.40;;;;;;5020102;28;20429;-56
2022/02/03 20:12:49;;;;;;;1.00;0.90;;;22.70;35.40;;;;;;5018492;28;20025;-52
2022/02/03 20:15:19;;;;;;;0.95;0.73;;;22.80;35.40;;;;;;5053650;28;20029;-57
2022/02/03 20:17:45;;;;;;;1.42;1.20;;;22.70;35.40;;;;;;5046365;28;20414;-57
2022/02/03 20:20:11;;;;;;;2.03;1.45;;;22.70;35.40;;;;;;5036400;28;20068;-57
2022/02/03 20:22:39;;;;;;;1.05;0.90;;;22.80;35.40;;;;;;5037762;28;20036;-57
2022/02/03 20:25:07;;;;;;;1.70;1.08;;;22.70;35.40;;;;;;5041618;28;20119;-56
2022/02/03 20:27:33;;;;;;;1.92;1.30;;;22.70;35.40;;;;;;5050968;28;20029;-56
2022/02/03 20:29:59;;;;;;;1.30;1.20;;;22.70;35.40;;;;;;5035355;28;20328;-53
2022/02/03 20:32:28;;;;;;;1.08;0.98;;;22.70;35.40;;;;;;5047323;28;20373;-59
2022/02/03 20:34:55;;;;;;;1.80;1.23;;;22.70;35.40;;;;;;5040655;28;20090;-52
2022/02/03 20:37:21;;;;;;;1.55;1.33;;;22.70;35.40;;;;;;5040899;28;20404;-56
2022/02/03 20:39:46;;;;;;;1.67;1.20;;;22.70;35.50;;;;;;5035091;28;20075;-55
2022/02/03 20:42:16;;;;;;;2.22;1.10;;;22.70;35.50;;;;;;5041664;28;20045;-53
2022/02/03 20:44:50;;;;;;;1.60;1.00;;;22.70;35.80;;;;;;5047787;28;20092;-59
2022/02/03 20:47:18;;;;;;;2.08;1.13;;;22.80;36.00;;;;;;5046800;28;20017;-53
2022/02/03 20:49:45;;;;;;;1.83;1.20;;;22.80;36.00;;;;;;5040068;28;20432;-52
2022/02/03 20:52:11;;;;;;;1.30;1.20;;;22.80;35.90;;;;;;5034840;28;20060;-55
2022/02/03 20:54:39;;;;;;;2.28;1.40;;;22.80;35.90;;;;;;5034658;28;20013;-54
2022/02/03 20:57:06;;;;;;;1.40;1.15;;;22.80;35.90;;;;;;5049718;28;20048;-52
2022/02/03 21:00:15;;;;;;;1.30;1.20;;;22.80;35.90;;;;;;5046142;28;20314;-56
2022/02/03 21:02:36;;;;;;;1.38;1.13;;;22.80;35.90;;;;;;5034529;28;20076;-54
2022/02/03 21:05:08;;;;;;;1.38;1.23;;;22.70;35.80;;;;;;5035707;28;20040;-51
2022/02/03 21:07:37;;;;;;;1.10;1.00;;;22.70;35.80;;;;;;5041894;28;20083;-51
2022/02/03 21:10:10;;;;;;;1.10;0.75;;;22.70;35.80;;;;;;5049673;28;20452;-55
2022/02/03 21:12:37;;;;;;;0.98;0.90;;;22.70;35.80;;;;;;5035454;28;20071;-52
2022/02/03 21:15:06;;;;;;;1.20;1.10;;;22.70;35.80;;;;;;5043530;28;20037;-52
2022/02/03 21:17:32;;;;;;;1.10;1.00;;;22.70;35.80;;;;;;5044096;28;20031;-53
2022/02/03 21:20:19;;;;;;;1.50;1.30;;;22.70;35.80;;;;;;5039270;28;20021;-50
2022/02/03 21:22:46;;;;;;;1.42;1.20;;;22.70;35.80;;;;;;5043509;28;20029;-56
2022/02/03 21:25:24;;;;;;;1.38;1.15;;;22.70;35.80;;;;;;5042564;28;20383;-57
2022/02/03 21:27:54;;;;;;;1.50;1.23;;;22.70;35.80;;;;;;5045395;28;20044;-51
2022/02/03 21:30:22;;;;;;;1.75;1.42;;;22.70;35.80;;;;;;5043060;28;20030;-54
2022/02/03 21:32:49;;;;;;;1.58;1.35;;;22.70;35.80;;;;;;5040357;28;20046;-55
2022/02/03 21:35:17;;;;;;;1.60;1.40;;;22.60;35.70;;;;;;5043602;28;20029;-55
2022/02/03 21:37:44;;;;;;;1.98;1.27;;;22.60;35.80;;;;;;5041110;28;20458;-53
2022/02/03 21:40:10;;;;;;;1.90;1.10;;;22.60;35.70;;;;;;5028219;28;20043;-55
2022/02/03 21:42:37;;;;;;;1.50;1.40;;;22.60;35.70;;;;;;5040878;28;20063;-54
2022/02/03 21:45:04;;;;;;;1.75;1.38;;;22.60;35.70;;;;;;5041913;28;20247;-55
2022/02/03 21:47:31;;;;;;;1.63;1.33;;;22.70;35.80;;;;;;5037535;28;20017;-55
2022/02/03 21:49:59;;;;;;;2.13;1.52;;;22.60;35.70;;;;;;5043615;28;20032;-54
2022/02/03 21:52:33;;;;;;;1.42;1.30;;;22.60;35.80;;;;;;5041819;28;20021;-54
2022/02/03 21:55:00;;;;;;;;;;;22.60;35.70;;;;;;5042844;28;20036;-52
2022/02/03 21:57:26;;;;;;;1.52;1.20;;;22.60;35.80;;;;;;5040394;28;20221;-54
2022/02/03 21:59:53;;;;;;;1.70;1.20;;;22.60;35.80;;;;;;5041336;28;20036;-56
2022/02/03 22:02:19;;;;;;;1.58;1.20;;;22.60;35.80;;;;;;5042580;28;20104;-55
2022/02/03 22:04:45;;;;;;;1.73;1.40;;;22.60;35.90;;;;;;5025476;28;20452;-54
2022/02/03 22:07:11;;;;;;;2.03;1.23;;;22.60;36.00;;;;;;5037603;28;20047;-54
2022/02/03 22:09:38;;;;;;;5.85;1.35;;;22.50;36.10;;;;;;5046576;28;20099;-54
2022/02/03 22:12:07;;;;;;;1.50;1.30;;;22.60;36.20;;;;;;5041357;28;20033;-57
2022/02/03 22:14:34;;;;;;;1.70;1.60;;;22.60;36.20;;;;;;5038831;28;20218;-55
2022/02/03 22:17:02;;;;;;;1.88;1.50;;;22.60;36.20;;;;;;5039065;28;20443;-55
2022/02/03 22:19:29;;;;;;;2.85;1.75;;;22.60;36.20;;;;;;5035881;28;20021;-58
2022/02/03 22:22:34;;;;;;;1.60;1.50;;;22.60;36.20;;;;;;5040664;28;20029;-52
2022/02/03 22:42:24;;;;;;;1.85;1.60;;;22.50;36.10;;;;;;5040228;28;20069;-51
2022/02/03 22:44:12;;;;;;;3.40;1.48;;;22.50;36.10;;;;;;5040117;28;20021;-54
2022/02/03 22:46:55;;;;;;;1.40;1.30;;;22.50;36.20;;;;;;5042482;28;20394;-54
2022/02/03 22:49:21;;;;;;;3.13;1.65;;;22.50;36.20;;;;;;5046834;28;20017;-56
2022/02/03 22:51:47;;;;;;;1.73;1.52;;;22.50;36.20;;;;;;5045455;28;20334;-52
2022/02/03 22:54:13;;;;;;;2.38;1.70;;;22.50;36.20;;;;;;5041806;28;20025;-53
2022/02/03 22:56:39;;;;;;;1.55;1.40;;;22.40;36.10;;;;;;5027943;28;20690;-52
2022/02/03 22:59:33;;;;;;;1.63;1.50;;;22.40;36.10;;;;;;5039671;28;20550;-57
2022/02/03 23:01:51;;;;;;;1.58;1.30;;;22.50;36.20;;;;;;5038699;28;20052;-51
2022/02/03 23:04:18;;;;;;;1.65;1.50;;;22.40;36.10;;;;;;5046064;28;20033;-55
2022/02/03 23:06:43;;;;;;;2.88;1.55;;;22.40;36.10;;;;;;5045226;28;20123;-54
2022/02/03 23:09:32;;;;;;;1.60;1.50;;;22.40;36.10;;;;;;5045174;28;20112;-52
2022/02/03 23:14:50;;;;;;;1.70;1.60;;;22.40;36.10;;;;;;5048911;28;20021;-52
2022/02/03 23:22:27;;;;;;;1.70;1.50;;;22.40;36.00;;;;;;5041881;28;20043;-56
2022/02/03 23:24:54;;;;;;;1.60;1.50;;;22.40;36.00;;;;;;5044107;28;20103;-58
2022/02/03 23:30:06;;;;;;;1.55;1.45;;;22.40;35.90;;;;;;5045695;28;20047;-52
2022/02/03 23:32:32;;;;;;;1.67;1.55;;;22.40;35.90;;;;;;5042764;28;20032;-53
2022/02/03 23:35:16;;;;;;;1.60;1.40;;;22.40;35.90;;;;;;5043520;28;20037;-52
2022/02/03 23:37:46;;;;;;;2.17;1.63;;;22.40;35.90;;;;;;5044180;28;20021;-53
2022/02/03 23:40:38;;;;;;;1.73;1.42;;;22.40;35.90;;;;;;5050135;28;20033;-51
